Vancouver International Airport

Airport
ICAO code: 
CYVR
IATA Code: 
YVR
Summary
ICAO Region: 
NAM
Territory: 
Location: 
Sea Island, Richmond, British Columbia
Serving: 
Vancouver
Elevation: 
14 ft
Coordinates: 
Aerial View: 
49° 11' 40.395" N, 123° 10' 48.711" W
Airport LOS: 
Parallel Runway Operation
Airport WX: 
Fog
Metar
Observation
CYVR 171629Z 09006KT 15SM SCT044 OVC050 05/05 A3001 RMK SC3SC5 SLP165
Station
Vancouver International Air-Port, B. C.
Date/Time
2022-01-17 16:29:00
Wind direction
90°
Wind speed
06 kts
Lowest cloud amount
scattered clouds
Temperature
5°C
Dew point
5°C
Humidity
100%
Weather condition
n/a

Description

Vancouver International Airport is located on Sea Island in Richmond, British Columbia, Canada, about 12 km from Downtown Vancouver.

Climatology

Temperate Marine climate/Oceanic climate (Köppen climate classification Cfb). Moderately cool summer and comparatively warm winter.

Runways

Designator Length Width Surface Rops
XX/26A 1067 23 CON No/No
12/30 2225 61 CON Yes/Yes
08L/26R 3030 61 CON Yes/Yes
08R/26L 3505 61 ASP Yes/Yes
Airport map: 
Aerial View: 

SKYbrary Partners:

Safety knowledge contributed by: